Time;durP1;ratioP1;P1;durP2;ratioP2;P2;SDS_P1;SDS_P2;PMS_P1;PMS_P2;Temp;Humidity;BMP_temperature;BMP_pressure;BME280_temperature;BME280_humidity;BME280_pressure;Samples;Min_cycle;Max_cycle;Signal;HPM_P1;HPM_P2
2023/03/02 00:01:19;;;;;;;7.80;5.72;;;3.50;57.80;;;;;;4990344;28;20187;-76
2023/03/02 00:03:45;;;;;;;9.33;5.73;;;3.50;57.90;;;;;;4990256;28;20277;-76
2023/03/02 00:06:11;;;;;;;7.33;5.20;;;3.50;57.90;;;;;;4991838;28;20598;-76
2023/03/02 00:08:38;;;;;;;6.70;5.28;;;3.50;58.00;;;;;;4991402;28;20661;-76
2023/03/02 00:11:04;;;;;;;8.63;5.43;;;3.50;58.10;;;;;;4974141;28;20635;-75
2023/03/02 00:13:33;;;;;;;8.77;4.85;;;3.50;58.20;;;;;;4990309;28;20208;-75
2023/03/02 00:15:58;;;;;;;6.88;4.78;;;3.40;58.40;;;;;;4974938;28;20210;-75
2023/03/02 00:18:24;;;;;;;7.80;5.30;;;3.40;58.30;;;;;;4993747;28;20206;-75
2023/03/02 00:20:50;;;;;;;4.87;4.03;;;3.40;58.50;;;;;;4996114;28;20225;-76
2023/03/02 00:23:16;;;;;;;6.20;4.40;;;3.40;58.60;;;;;;4995713;28;20634;-76
2023/03/02 00:25:42;;;;;;;5.90;4.40;;;3.40;58.70;;;;;;4982503;28;20199;-74
2023/03/02 00:28:07;;;;;;;7.10;4.40;;;3.40;59.30;;;;;;4995798;28;20605;-74
2023/03/02 00:30:33;;;;;;;6.30;4.67;;;3.40;59.00;;;;;;4992586;28;20166;-75
2023/03/02 00:32:59;;;;;;;4.80;3.70;;;3.40;59.10;;;;;;4992395;28;20206;-75
2023/03/02 00:35:28;;;;;;;6.30;4.33;;;3.40;59.20;;;;;;4995404;28;20645;-72
2023/03/02 00:37:54;;;;;;;6.40;4.05;;;3.40;59.50;;;;;;4991736;28;20705;-72
2023/03/02 00:40:20;;;;;;;9.17;5.00;;;3.40;59.70;;;;;;4991723;28;20175;-72
2023/03/02 00:42:45;;;;;;;12.50;4.73;;;3.40;59.70;;;;;;4974367;28;20198;-73
2023/03/02 00:45:11;;;;;;;6.70;4.87;;;3.30;59.60;;;;;;4973980;28;20585;-73
2023/03/02 00:47:37;;;;;;;6.03;4.30;;;3.30;59.80;;;;;;4990663;28;20651;-72
2023/03/02 00:50:05;;;;;;;6.22;4.70;;;3.30;59.80;;;;;;4957537;28;20583;-73
2023/03/02 00:52:32;;;;;;;6.50;4.30;;;3.30;60.00;;;;;;4972883;28;20195;-73
2023/03/02 00:54:58;;;;;;;7.40;5.10;;;3.30;60.10;;;;;;4975608;28;20267;-73
2023/03/02 00:57:24;;;;;;;8.00;4.80;;;3.20;60.20;;;;;;4973213;28;20357;-73
2023/03/02 00:59:49;;;;;;;8.40;5.90;;;3.20;60.40;;;;;;4989348;28;20190;-73
2023/03/02 01:02:33;;;;;;;8.27;5.82;;;3.20;60.60;;;;;;4990769;28;20667;-73
2023/03/02 01:04:59;;;;;;;9.27;6.23;;;3.20;60.70;;;;;;4973396;28;20171;-73
2023/03/02 01:07:27;;;;;;;9.10;5.93;;;3.20;60.90;;;;;;4991299;28;20179;-73
2023/03/02 01:09:53;;;;;;;8.60;5.32;;;3.20;61.20;;;;;;4973030;28;20613;-73
2023/03/02 01:12:19;;;;;;;9.70;6.30;;;3.10;61.30;;;;;;4991957;28;20286;-72
2023/03/02 01:14:47;;;;;;;8.85;5.82;;;3.10;61.70;;;;;;4990422;28;20621;-73
2023/03/02 01:17:14;;;;;;;8.75;5.68;;;3.10;61.90;;;;;;4973733;28;20199;-73
2023/03/02 01:19:41;;;;;;;7.10;4.85;;;3.10;62.20;;;;;;4988765;28;20599;-73
2023/03/02 01:22:07;;;;;;;8.32;5.93;;;3.00;62.20;;;;;;4973167;28;20198;-73
2023/03/02 01:24:33;;;;;;;11.75;6.25;;;3.00;62.50;;;;;;4992773;28;20590;-73
2023/03/02 01:26:59;;;;;;;10.48;5.90;;;3.00;62.80;;;;;;4993071;28;20214;-72
2023/03/02 01:29:25;;;;;;;8.00;6.03;;;2.90;62.90;;;;;;4994637;28;20210;-73
2023/03/02 01:31:50;;;;;;;10.45;4.88;;;2.90;63.30;;;;;;4991845;28;20194;-73
2023/03/02 01:34:16;;;;;;;6.77;4.70;;;2.90;63.50;;;;;;4993717;28;20600;-73
2023/03/02 01:36:45;;;;;;;6.55;5.15;;;2.90;63.70;;;;;;4994139;28;20416;-76
2023/03/02 01:39:15;;;;;;;11.13;5.47;;;2.80;63.80;;;;;;4977179;28;20178;-76
2023/03/02 01:41:45;;;;;;;8.50;5.90;;;2.80;63.90;;;;;;4992267;28;20171;-75
2023/03/02 01:44:40;;;;;;;8.77;6.00;;;2.80;64.40;;;;;;4992990;28;20175;-76
2023/03/02 01:47:29;;;;;;;9.25;4.90;;;2.80;65.50;;;;;;4989774;28;20186;-75
2023/03/02 01:50:23;;;;;;;8.02;5.72;;;2.80;65.00;;;;;;4998263;28;20190;-76
2023/03/02 01:52:54;;;;;;;10.50;5.40;;;2.70;65.80;;;;;;4976149;28;20278;-75
2023/03/02 01:55:23;;;;;;;7.90;5.43;;;2.70;65.80;;;;;;4993042;28;20179;-76
2023/03/02 01:57:52;;;;;;;6.40;4.28;;;2.70;65.20;;;;;;4992972;28;20179;-75
2023/03/02 02:00:22;;;;;;;6.82;4.80;;;2.70;65.40;;;;;;4991221;28;20260;-75
2023/03/02 02:02:49;;;;;;;8.50;5.88;;;2.70;66.10;;;;;;4991388;28;20246;-75
2023/03/02 02:05:28;;;;;;;7.88;4.20;;;2.60;66.10;;;;;;4993731;28;20210;-76
2023/03/02 02:07:54;;;;;;;7.77;5.07;;;2.60;66.10;;;;;;4976367;28;20222;-75
2023/03/02 02:10:21;;;;;;;7.00;4.60;;;2.60;67.30;;;;;;4971012;28;20599;-75
2023/03/02 02:12:46;;;;;;;8.15;4.93;;;2.60;66.60;;;;;;4952536;28;20206;-76
2023/03/02 02:15:12;;;;;;;7.03;4.50;;;2.60;66.90;;;;;;4974574;28;20230;-76
2023/03/02 02:17:39;;;;;;;6.10;4.20;;;2.60;67.10;;;;;;4991986;28;20689;-76
2023/03/02 02:20:20;;;;;;;7.22;4.25;;;2.60;67.40;;;;;;4975525;28;20237;-76
2023/03/02 02:23:07;;;;;;;6.10;4.05;;;2.60;68.30;;;;;;4991436;28;20249;-75
2023/03/02 02:26:04;;;;;;;6.22;4.28;;;2.60;68.50;;;;;;4985536;28;20179;-75
2023/03/02 02:28:39;;;;;;;8.95;5.43;;;2.60;68.80;;;;;;4975754;28;20210;-76
2023/03/02 02:31:11;;;;;;;7.22;4.30;;;2.60;68.70;;;;;;4976023;28;20198;-75
2023/03/02 02:33:37;;;;;;;6.07;4.82;;;2.60;68.60;;;;;;4991813;28;20203;-76
2023/03/02 02:36:13;;;;;;;7.35;4.47;;;2.60;68.60;;;;;;4991282;28;20211;-76
2023/03/02 02:38:39;;;;;;;5.57;4.50;;;2.60;69.20;;;;;;4975577;28;20171;-76
2023/03/02 02:41:11;;;;;;;9.77;4.30;;;2.60;69.00;;;;;;4975498;28;20237;-76
2023/03/02 02:43:37;;;;;;;5.97;4.53;;;2.50;69.20;;;;;;4992772;28;20225;-77
2023/03/02 02:46:05;;;;;;;5.38;4.20;;;2.50;69.60;;;;;;4973305;28;20195;-76
2023/03/02 02:48:31;;;;;;;10.20;5.57;;;2.50;69.50;;;;;;4991828;28;20174;-77
2023/03/02 02:50:59;;;;;;;9.38;5.68;;;2.50;70.30;;;;;;4991512;28;20594;-75
2023/03/02 02:53:49;;;;;;;6.50;4.80;;;2.50;70.60;;;;;;4992843;28;20199;-75
2023/03/02 02:56:17;;;;;;;8.40;5.32;;;2.50;73.10;;;;;;4992907;28;20345;-75
2023/03/02 02:58:52;;;;;;;9.40;5.13;;;2.50;71.00;;;;;;4975219;28;20198;-76
2023/03/02 03:01:24;;;;;;;8.10;5.40;;;2.50;71.60;;;;;;4990757;28;20202;-75
2023/03/02 03:03:59;;;;;;;7.20;4.53;;;2.50;72.10;;;;;;4976124;28;20214;-75
2023/03/02 03:06:40;;;;;;;8.23;4.28;;;2.50;71.50;;;;;;4993314;28;20202;-75
2023/03/02 03:09:08;;;;;;;5.25;3.50;;;2.50;72.00;;;;;;4961362;28;20655;-75
2023/03/02 03:11:42;;;;;;;5.28;4.00;;;2.50;71.70;;;;;;4974876;28;20262;-75
2023/03/02 03:14:11;;;;;;;7.30;4.43;;;2.50;71.70;;;;;;4991769;28;20175;-75
2023/03/02 03:16:40;;;;;;;5.68;3.78;;;2.50;72.10;;;;;;4990819;28;20211;-75
2023/03/02 03:19:25;;;;;;;5.88;4.30;;;2.50;72.40;;;;;;4991635;28;20258;-75
2023/03/02 03:21:55;;;;;;;6.07;4.20;;;2.40;74.30;;;;;;4986294;28;20167;-76
2023/03/02 03:24:24;;;;;;;6.88;4.85;;;2.50;72.70;;;;;;4975193;28;20171;-75
2023/03/02 03:26:53;;;;;;;6.95;4.22;;;2.40;73.40;;;;;;4958960;28;20278;-75
2023/03/02 03:29:23;;;;;;;5.90;4.20;;;2.40;73.40;;;;;;4974656;28;20179;-75
2023/03/02 03:31:50;;;;;;;7.03;4.32;;;2.40;73.30;;;;;;4990414;28;20183;-75
2023/03/02 03:34:16;;;;;;;7.95;4.90;;;2.40;73.50;;;;;;4945749;28;20865;-76
2023/03/02 03:36:43;;;;;;;8.27;5.20;;;2.40;74.10;;;;;;4991195;28;20210;-76
2023/03/02 03:39:10;;;;;;;7.43;4.28;;;2.40;74.60;;;;;;4989970;28;20179;-75
2023/03/02 03:41:36;;;;;;;8.25;4.63;;;2.40;74.80;;;;;;4974997;28;20167;-75
2023/03/02 03:44:02;;;;;;;7.23;4.63;;;2.40;74.70;;;;;;4990997;28;20583;-76
2023/03/02 03:46:31;;;;;;;7.72;4.88;;;2.30;74.70;;;;;;4991811;28;20685;-76
2023/03/02 03:48:57;;;;;;;7.10;4.88;;;2.30;74.80;;;;;;4991052;28;20217;-76
2023/03/02 03:51:24;;;;;;;6.07;4.17;;;2.30;74.80;;;;;;4991522;28;20643;-76
2023/03/02 03:53:59;;;;;;;8.57;4.80;;;2.30;75.00;;;;;;4974760;28;21215;-76
2023/03/02 03:56:30;;;;;;;7.18;4.40;;;2.30;75.30;;;;;;4990546;28;20230;-76
2023/03/02 03:59:05;;;;;;;5.10;4.13;;;2.30;75.30;;;;;;4991108;28;20175;-76
2023/03/02 04:01:37;;;;;;;6.97;4.47;;;2.30;75.70;;;;;;4989667;28;20209;-76
2023/03/02 04:04:05;;;;;;;8.32;6.25;;;2.30;76.40;;;;;;4991251;28;20182;-76
2023/03/02 04:06:31;;;;;;;7.00;4.70;;;2.30;75.70;;;;;;4958060;28;20265;-76
2023/03/02 04:09:03;;;;;;;8.23;5.10;;;2.30;76.90;;;;;;4974657;28;20266;-76
2023/03/02 04:11:35;;;;;;;8.40;4.93;;;2.30;76.60;;;;;;4957666;28;20689;-76
2023/03/02 04:14:01;;;;;;;7.75;4.60;;;2.20;77.00;;;;;;4990448;28;20199;-76
2023/03/02 04:16:28;;;;;;;7.45;4.80;;;2.20;76.70;;;;;;4974252;28;20246;-75
2023/03/02 04:18:56;;;;;;;5.50;4.82;;;2.20;76.90;;;;;;4975323;28;20171;-75
2023/03/02 04:21:22;;;;;;;6.45;4.78;;;2.20;77.50;;;;;;4973771;28;20171;-75
2023/03/02 04:23:48;;;;;;;9.32;5.43;;;2.20;77.70;;;;;;4990158;28;20576;-75
2023/03/02 04:26:14;;;;;;;8.73;5.33;;;2.20;77.60;;;;;;4992277;28;20175;-76
2023/03/02 04:28:39;;;;;;;7.60;4.83;;;2.20;77.80;;;;;;4989940;28;20610;-76
2023/03/02 04:31:05;;;;;;;7.87;4.70;;;2.20;78.00;;;;;;4992074;28;20574;-75
2023/03/02 04:33:31;;;;;;;6.27;4.80;;;2.10;78.10;;;;;;4990458;28;20624;-76
2023/03/02 04:35:57;;;;;;;6.10;4.90;;;2.10;78.40;;;;;;4990198;28;20634;-76
2023/03/02 04:38:23;;;;;;;7.00;4.35;;;2.10;78.70;;;;;;4990122;28;20193;-76
2023/03/02 04:40:49;;;;;;;5.38;4.05;;;2.10;78.90;;;;;;4973073;28;20171;-76
2023/03/02 04:43:14;;;;;;;6.70;4.17;;;2.10;78.90;;;;;;4990023;28;20306;-76
2023/03/02 04:45:40;;;;;;;6.10;4.03;;;2.00;79.00;;;;;;4989835;28;20174;-76
2023/03/02 04:48:06;;;;;;;6.37;5.03;;;2.00;79.10;;;;;;4990477;28;20175;-76
2023/03/02 04:50:33;;;;;;;8.82;5.38;;;2.00;79.20;;;;;;4990910;28;20205;-77
2023/03/02 04:52:59;;;;;;;7.93;4.95;;;2.00;79.70;;;;;;4989428;28;20206;-76
2023/03/02 04:55:26;;;;;;;6.00;5.37;;;2.00;79.90;;;;;;4990608;28;20206;-76
2023/03/02 04:57:52;;;;;;;8.15;4.85;;;2.00;80.50;;;;;;4993530;28;21130;-76
2023/03/02 05:00:19;;;;;;;7.67;4.93;;;2.00;80.50;;;;;;4977524;28;20174;-76
2023/03/02 05:02:46;;;;;;;6.53;4.47;;;2.00;81.90;;;;;;4993285;28;20605;-76
2023/03/02 05:05:21;;;;;;;9.02;4.55;;;2.00;81.40;;;;;;4995160;28;20167;-76
2023/03/02 05:07:46;;;;;;;7.35;4.45;;;1.90;82.30;;;;;;4994637;28;20688;-77
2023/03/02 05:10:14;;;;;;;7.20;4.43;;;1.90;81.40;;;;;;4993557;28;20179;-76
2023/03/02 05:13:03;;;;;;;8.65;5.45;;;1.90;82.60;;;;;;4993236;28;20786;-77
2023/03/02 05:15:36;;;;;;;6.85;4.65;;;1.90;83.40;;;;;;4995515;28;20541;-76
2023/03/02 05:18:07;;;;;;;7.30;4.25;;;1.90;82.80;;;;;;4993890;28;20194;-75
2023/03/02 05:20:33;;;;;;;5.63;4.13;;;1.90;82.60;;;;;;4977020;28;20178;-77
2023/03/02 05:23:03;;;;;;;8.93;3.92;;;1.90;82.60;;;;;;4977356;28;20254;-76
2023/03/02 05:25:30;;;;;;;8.45;5.57;;;1.90;82.50;;;;;;4995101;28;20266;-76
2023/03/02 05:27:56;;;;;;;6.60;4.40;;;1.90;83.00;;;;;;4996890;28;20558;-76
2023/03/02 05:30:23;;;;;;;6.80;4.90;;;1.90;83.90;;;;;;4997238;28;20266;-75
2023/03/02 05:32:50;;;;;;;8.13;5.13;;;1.90;83.50;;;;;;4999656;28;20706;-76
2023/03/02 05:35:17;;;;;;;9.63;6.20;;;1.90;84.10;;;;;;4999827;28;20171;-76
2023/03/02 05:37:43;;;;;;;7.90;5.10;;;1.90;84.20;;;;;;4996354;28;20186;-76
2023/03/02 05:40:15;;;;;;;7.57;5.63;;;1.90;84.20;;;;;;4998278;28;20210;-76
2023/03/02 05:42:42;;;;;;;7.43;4.28;;;1.90;84.40;;;;;;4993685;28;20190;-76
2023/03/02 05:45:15;;;;;;;10.05;5.93;;;1.90;84.10;;;;;;4993434;28;20187;-76
2023/03/02 05:47:40;;;;;;;6.63;4.95;;;1.90;84.70;;;;;;4992774;28;20194;-76
2023/03/02 05:50:07;;;;;;;7.00;5.17;;;1.80;84.40;;;;;;4992312;28;20182;-76
2023/03/02 05:52:32;;;;;;;7.00;4.95;;;1.80;84.60;;;;;;4992668;28;20287;-76
2023/03/02 05:54:58;;;;;;;8.90;6.07;;;1.90;84.80;;;;;;4992980;28;20278;-76
2023/03/02 05:57:27;;;;;;;10.50;5.67;;;1.90;85.20;;;;;;4994360;28;20202;-76
2023/03/02 05:59:52;;;;;;;6.90;4.25;;;1.80;85.20;;;;;;4993194;28;20578;-75
2023/03/02 06:02:18;;;;;;;8.77;5.20;;;1.80;85.10;;;;;;4993478;28;20876;-76
2023/03/02 06:04:44;;;;;;;9.30;4.83;;;1.80;85.20;;;;;;4991866;28;20278;-76
2023/03/02 06:07:10;;;;;;;6.80;5.17;;;1.90;85.70;;;;;;4991742;28;20200;-75
2023/03/02 06:09:38;;;;;;;6.75;4.55;;;1.90;85.70;;;;;;4993183;28;20215;-75
2023/03/02 06:12:05;;;;;;;7.88;5.22;;;1.90;86.00;;;;;;4978501;28;20257;-76
2023/03/02 06:14:31;;;;;;;8.35;5.70;;;1.90;86.20;;;;;;4991721;28;20195;-76
2023/03/02 06:16:56;;;;;;;6.00;4.20;;;1.90;86.20;;;;;;4989702;28;20230;-76
2023/03/02 06:19:25;;;;;;;7.13;5.05;;;1.90;86.30;;;;;;4990761;28;20598;-75
2023/03/02 06:21:50;;;;;;;7.00;4.70;;;1.90;86.40;;;;;;4990691;28;20207;-75
2023/03/02 06:24:16;;;;;;;6.73;5.10;;;1.90;86.70;;;;;;4991695;28;20584;-76
2023/03/02 06:26:42;;;;;;;6.20;4.90;;;1.90;87.00;;;;;;4990779;28;20635;-76
2023/03/02 06:29:08;;;;;;;8.53;5.47;;;1.90;87.00;;;;;;4991190;28;20278;-76
2023/03/02 06:31:35;;;;;;;10.05;4.88;;;2.00;87.30;;;;;;4988710;28;1077240;-76
2023/03/02 06:34:01;;;;;;;6.43;4.93;;;2.00;87.50;;;;;;4992251;28;20668;-76
2023/03/02 06:36:27;;;;;;;7.07;4.30;;;2.00;87.70;;;;;;4991748;28;20203;-77
2023/03/02 06:38:53;;;;;;;6.60;4.67;;;2.00;87.70;;;;;;4959907;28;20182;-76
2023/03/02 06:41:19;;;;;;;7.53;5.00;;;2.10;87.90;;;;;;4990929;28;20645;-76
2023/03/02 06:43:45;;;;;;;8.02;5.35;;;2.10;88.00;;;;;;4993346;28;20594;-77
2023/03/02 06:46:11;;;;;;;10.40;5.80;;;2.10;88.10;;;;;;4993808;28;20175;-77
2023/03/02 06:48:37;;;;;;;8.50;5.53;;;2.20;88.30;;;;;;4995466;28;20237;-76
2023/03/02 06:51:03;;;;;;;8.45;4.70;;;2.20;88.40;;;;;;4992869;28;20590;-76
2023/03/02 06:53:29;;;;;;;9.32;4.78;;;2.30;88.40;;;;;;4992754;28;20227;-76
2023/03/02 06:55:55;;;;;;;8.47;5.27;;;2.30;88.60;;;;;;4993175;28;20252;-76
2023/03/02 06:58:20;;;;;;;8.10;5.60;;;2.40;88.90;;;;;;4992637;28;20942;-77
2023/03/02 07:00:49;;;;;;;9.10;5.60;;;2.40;89.10;;;;;;4991813;28;20198;-76
2023/03/02 07:03:16;;;;;;;10.75;4.78;;;2.40;90.00;;;;;;4990630;28;20293;-77
2023/03/02 07:05:42;;;;;;;5.35;4.82;;;2.50;90.00;;;;;;4991159;28;20187;-78
2023/03/02 07:08:08;;;;;;;6.73;5.30;;;2.50;90.10;;;;;;4992916;28;20182;-77
2023/03/02 07:10:35;;;;;;;7.78;4.57;;;2.60;89.60;;;;;;4992271;28;20597;-76
2023/03/02 07:13:01;;;;;;;6.22;5.03;;;2.70;89.70;;;;;;4991363;28;20674;-76
2023/03/02 07:15:27;;;;;;;8.53;5.13;;;2.70;89.60;;;;;;4991272;28;20214;-78
2023/03/02 07:17:52;;;;;;;6.23;4.53;;;2.80;89.70;;;;;;4974933;28;20590;-76
2023/03/02 07:20:18;;;;;;;7.13;4.60;;;2.80;89.70;;;;;;4990407;28;20182;-78
2023/03/02 07:22:44;;;;;;;7.35;4.90;;;2.90;89.80;;;;;;4992008;28;20199;-77
2023/03/02 07:25:11;;;;;;;6.40;4.65;;;3.00;90.00;;;;;;4994934;28;20545;-78
2023/03/02 07:27:37;;;;;;;6.55;4.78;;;3.10;90.00;;;;;;4992322;28;20171;-77
2023/03/02 07:30:04;;;;;;;9.25;6.00;;;3.10;90.00;;;;;;4992171;28;20175;-77
2023/03/02 07:32:30;;;;;;;9.73;6.32;;;3.20;90.10;;;;;;4990604;28;20219;-77
2023/03/02 07:34:56;;;;;;;8.70;6.10;;;3.30;90.50;;;;;;4992431;28;20181;-77
2023/03/02 07:37:24;;;;;;;9.50;5.90;;;3.40;90.20;;;;;;4989753;28;20649;-77
2023/03/02 07:39:50;;;;;;;7.80;5.95;;;3.50;90.30;;;;;;4981427;28;20631;-77
2023/03/02 07:42:16;;;;;;;8.10;5.40;;;3.60;90.30;;;;;;4973915;28;20199;-76
2023/03/02 07:44:45;;;;;;;6.43;5.28;;;3.70;90.40;;;;;;4974757;28;20299;-76
2023/03/02 07:47:11;;;;;;;6.77;5.90;;;3.80;90.40;;;;;;4987804;28;20195;-76
2023/03/02 07:49:37;;;;;;;6.90;5.13;;;3.90;90.50;;;;;;4990583;28;20641;-77
2023/03/02 07:52:03;;;;;;;8.45;5.63;;;4.00;90.50;;;;;;4990180;28;20199;-78
2023/03/02 07:54:29;;;;;;;6.32;4.68;;;4.10;90.40;;;;;;4983607;28;20178;-77
2023/03/02 07:56:56;;;;;;;8.40;5.05;;;4.20;90.30;;;;;;4990718;28;20718;-77
2023/03/02 07:59:23;;;;;;;6.20;5.05;;;4.30;90.10;;;;;;4990392;28;20218;-77
2023/03/02 08:01:49;;;;;;;8.38;6.13;;;4.40;90.00;;;;;;4993077;28;20639;-77
2023/03/02 08:04:15;;;;;;;9.05;4.80;;;4.50;90.10;;;;;;4991148;28;20205;-78
2023/03/02 08:06:40;;;;;;;8.97;5.60;;;4.60;90.00;;;;;;4997169;28;20174;-77
2023/03/02 08:09:06;;;;;;;6.07;4.60;;;4.80;90.00;;;;;;4992784;28;20234;-78
2023/03/02 08:11:32;;;;;;;8.27;4.20;;;4.90;89.60;;;;;;4990840;28;20182;-77
2023/03/02 08:14:02;;;;;;;7.10;5.13;;;5.00;89.30;;;;;;4991293;28;21109;-77
2023/03/02 08:16:28;;;;;;;5.38;4.10;;;5.10;88.90;;;;;;4991087;28;20561;-77
2023/03/02 08:18:54;;;;;;;6.75;4.78;;;5.30;89.00;;;;;;4989111;28;20180;-76
2023/03/02 08:21:22;;;;;;;6.50;4.75;;;5.40;88.90;;;;;;4988862;28;20261;-77
2023/03/02 08:23:49;;;;;;;7.45;5.00;;;5.60;89.00;;;;;;4982968;28;20261;-77
2023/03/02 08:26:16;;;;;;;8.40;4.97;;;6.10;90.00;;;;;;4978718;28;20260;-77
2023/03/02 08:28:42;;;;;;;9.35;4.90;;;6.90;91.30;;;;;;5001176;28;20263;-79
2023/03/02 08:31:09;;;;;;;5.93;5.00;;;7.80;92.50;;;;;;4990104;28;20314;-76
2023/03/02 08:33:35;;;;;;;6.82;5.95;;;8.80;94.00;;;;;;4952959;28;20219;-76
2023/03/02 08:36:04;;;;;;;7.03;5.32;;;9.90;94.50;;;;;;4970507;28;20233;-76
2023/03/02 08:38:33;;;;;;;10.60;6.10;;;11.10;93.70;;;;;;4972140;28;20525;-76
2023/03/02 08:41:02;;;;;;;5.93;5.33;;;12.30;92.90;;;;;;4982678;28;20575;-78
2023/03/02 08:43:28;;;;;;;7.90;5.57;;;13.30;92.60;;;;;;4990432;28;21169;-74
2023/03/02 08:45:58;;;;;;;9.97;6.20;;;14.50;92.10;;;;;;4980411;28;20628;-74
2023/03/02 08:48:25;;;;;;;7.60;5.77;;;15.40;91.10;;;;;;4983493;28;20582;-75
2023/03/02 08:51:05;;;;;;;7.77;5.17;;;16.40;90.00;;;;;;4990824;28;20590;-73
2023/03/02 08:53:34;;;;;;;6.03;4.47;;;17.30;84.90;;;;;;4974243;28;20616;-73
2023/03/02 08:56:00;;;;;;;9.80;5.40;;;18.20;84.20;;;;;;4990275;28;20645;-73
2023/03/02 08:58:27;;;;;;;7.27;6.27;;;19.00;80.50;;;;;;4990326;28;20673;-73
2023/03/02 09:00:53;;;;;;;6.77;5.17;;;19.70;79.40;;;;;;4991391;28;20554;-78
2023/03/02 09:03:19;;;;;;;9.17;4.77;;;20.30;77.10;;;;;;4975010;28;20621;-77
2023/03/02 09:05:45;;;;;;;5.33;4.63;;;20.90;75.90;;;;;;4990055;28;20182;-77
2023/03/02 09:08:11;;;;;;;7.13;6.13;;;21.50;74.00;;;;;;4985042;28;20613;-76
2023/03/02 09:10:37;;;;;;;6.93;5.27;;;22.00;71.00;;;;;;4979450;28;20606;-77
2023/03/02 09:13:04;;;;;;;5.47;4.97;;;22.50;69.40;;;;;;4989139;28;20233;-77
2023/03/02 09:15:30;;;;;;;7.97;5.70;;;22.90;67.20;;;;;;4992993;28;20578;-77
2023/03/02 09:17:56;;;;;;;6.20;4.80;;;23.30;65.50;;;;;;4991426;28;20665;-77
2023/03/02 09:20:22;;;;;;;7.30;4.87;;;23.70;63.90;;;;;;4989965;28;20211;-77
2023/03/02 09:22:49;;;;;;;6.00;4.70;;;24.00;62.30;;;;;;4990642;28;21133;-78
2023/03/02 09:25:17;;;;;;;7.03;4.90;;;24.40;60.30;;;;;;4990889;28;20186;-77
2023/03/02 09:27:44;;;;;;;5.60;4.80;;;24.70;59.60;;;;;;4958406;28;20882;-76
2023/03/02 09:30:14;;;;;;;5.97;4.90;;;25.00;58.50;;;;;;4990008;28;20614;-76
2023/03/02 09:32:40;;;;;;;6.53;5.20;;;25.10;56.90;;;;;;4989835;28;20692;-77
2023/03/02 09:35:06;;;;;;;7.03;5.97;;;25.30;55.60;;;;;;4973457;28;21129;-77
2023/03/02 09:37:34;;;;;;;5.23;4.73;;;25.40;54.90;;;;;;4992012;28;20632;-78
2023/03/02 09:39:59;;;;;;;5.47;4.40;;;25.60;53.20;;;;;;4989338;28;20690;-77
2023/03/02 09:42:38;;;;;;;6.33;5.23;;;25.80;53.20;;;;;;4975614;28;20717;-78
2023/03/02 09:45:36;;;;;;;6.93;5.83;;;26.00;51.10;;;;;;4993386;28;20658;-76
2023/03/02 09:48:26;;;;;;;5.40;4.90;;;26.10;49.30;;;;;;4994996;28;20566;-76
2023/03/02 09:51:24;;;;;;;4.87;4.37;;;26.30;49.10;;;;;;4975878;28;20985;-76
2023/03/02 09:54:04;;;;;;;6.00;5.20;;;26.50;49.90;;;;;;4996909;28;20623;-75
2023/03/02 09:56:32;;;;;;;6.27;5.00;;;26.70;48.70;;;;;;4989168;28;20734;-76
2023/03/02 09:59:04;;;;;;;5.97;5.27;;;26.80;47.90;;;;;;4988342;28;20578;-76
2023/03/02 10:01:44;;;;;;;6.00;5.37;;;27.00;47.20;;;;;;4991869;28;20590;-77
2023/03/02 10:04:29;;;;;;;5.60;4.70;;;27.10;45.10;;;;;;4992821;28;20582;-78
2023/03/02 10:07:15;;;;;;;5.33;4.17;;;27.10;45.20;;;;;;4993202;28;20733;-77
2023/03/02 10:09:42;;;;;;;5.97;5.37;;;27.10;43.00;;;;;;4992499;28;20575;-77
2023/03/02 10:12:20;;;;;;;6.03;4.80;;;27.00;43.50;;;;;;4976147;28;20614;-77
2023/03/02 10:15:11;;;;;;;6.00;4.97;;;27.00;43.50;;;;;;4992178;28;21133;-77
2023/03/02 10:17:50;;;;;;;6.17;5.60;;;27.10;43.40;;;;;;4982692;28;20709;-76
2023/03/02 10:20:26;;;;;;;6.07;5.30;;;27.10;42.60;;;;;;4992604;28;20598;-77
2023/03/02 10:22:58;;;;;;;6.10;4.10;;;27.10;42.80;;;;;;4993931;28;20709;-77
2023/03/02 10:25:40;;;;;;;5.90;5.30;;;27.20;43.10;;;;;;4975658;28;20603;-76
2023/03/02 10:28:22;;;;;;;6.37;5.40;;;27.30;42.10;;;;;;4991817;28;21611;-79
2023/03/02 10:31:15;;;;;;;5.47;4.97;;;27.20;42.10;;;;;;4992110;28;20666;-77
2023/03/02 10:33:41;;;;;;;7.70;5.17;;;27.10;41.20;;;;;;4993531;28;21236;-77
2023/03/02 10:36:21;;;;;;;5.80;5.20;;;26.90;41.70;;;;;;4991945;28;20679;-78
2023/03/02 10:38:47;;;;;;;5.60;5.10;;;26.60;39.00;;;;;;4993690;28;20234;-77
2023/03/02 10:41:20;;;;;;;4.40;3.90;;;26.30;40.60;;;;;;4990990;28;21133;-77
2023/03/02 10:43:50;;;;;;;5.50;5.00;;;26.00;40.80;;;;;;4993544;28;20195;-78
2023/03/02 10:46:16;;;;;;;5.30;4.70;;;25.80;40.60;;;;;;4991553;28;20594;-77
2023/03/02 10:49:38;;;;;;;6.33;5.13;;;25.60;40.70;;;;;;4993544;28;20628;-77
2023/03/02 10:52:04;;;;;;;6.17;5.13;;;25.30;39.90;;;;;;4976663;28;20377;-78
2023/03/02 10:54:32;;;;;;;7.63;4.70;;;25.10;40.50;;;;;;4992006;28;20738;-77
2023/03/02 10:57:04;;;;;;;5.23;4.73;;;25.00;40.40;;;;;;4990509;28;20210;-77
2023/03/02 10:59:45;;;;;;;5.37;4.50;;;24.90;40.20;;;;;;4975846;28;20636;-77
2023/03/02 11:02:21;;;;;;;5.03;4.50;;;24.90;39.60;;;;;;4975144;28;20610;-77
2023/03/02 11:05:08;;;;;;;5.43;4.80;;;24.80;39.50;;;;;;4991618;28;20574;-77
2023/03/02 11:07:34;;;;;;;5.87;5.27;;;24.80;40.00;;;;;;4992495;28;20598;-77
2023/03/02 11:10:04;;;;;;;5.57;5.00;;;24.70;39.40;;;;;;4990982;28;20582;-76
2023/03/02 11:12:31;;;;;;;6.53;5.83;;;24.60;39.20;;;;;;4987963;28;20204;-76
2023/03/02 11:15:28;;;;;;;6.50;4.97;;;24.50;39.20;;;;;;4972528;28;20642;-76
2023/03/02 11:18:04;;;;;;;5.50;4.90;;;24.30;37.10;;;;;;4967507;28;20656;-76
2023/03/02 11:20:42;;;;;;;9.30;6.30;;;24.20;38.70;;;;;;4975419;28;20598;-75
2023/03/02 11:23:34;;;;;;;6.40;5.47;;;24.10;37.80;;;;;;4992307;28;20618;-75
2023/03/02 11:26:21;;;;;;;7.33;4.70;;;24.00;37.50;;;;;;4974191;28;20649;-76
2023/03/02 11:28:59;;;;;;;7.80;5.40;;;23.90;38.60;;;;;;4989468;28;20601;-76
2023/03/02 11:31:59;;;;;;;5.67;4.43;;;23.70;37.60;;;;;;4983752;28;20912;-77
2023/03/02 11:34:32;;;;;;;6.17;5.33;;;23.40;37.80;;;;;;4950278;28;20678;-77
2023/03/02 11:37:16;;;;;;;9.00;5.37;;;23.20;37.40;;;;;;4989747;28;20645;-77
2023/03/02 11:39:48;;;;;;;6.57;5.67;;;22.90;37.40;;;;;;4990685;28;21169;-76
2023/03/02 11:42:30;;;;;;;9.20;7.10;;;22.70;36.80;;;;;;4990539;28;21022;-76
2023/03/02 11:44:59;;;;;;;7.50;6.70;;;22.40;36.80;;;;;;4993280;28;20637;-77
2023/03/02 11:47:26;;;;;;;6.60;5.90;;;22.20;37.10;;;;;;4990618;28;20610;-76
2023/03/02 11:49:54;;;;;;;7.17;5.13;;;22.00;37.20;;;;;;4991941;28;20648;-76
2023/03/02 11:52:30;;;;;;;6.60;5.10;;;21.80;36.70;;;;;;4992964;28;20665;-76
2023/03/02 11:54:58;;;;;;;8.70;6.67;;;21.70;37.00;;;;;;4993789;28;20621;-77
2023/03/02 11:57:34;;;;;;;5.43;4.70;;;21.60;37.10;;;;;;4992065;28;20626;-75
2023/03/02 12:00:00;;;;;;;6.30;5.70;;;21.40;36.90;;;;;;4992083;28;20662;-75
2023/03/02 12:02:27;;;;;;;6.70;5.10;;;21.30;37.20;;;;;;4992281;28;20721;-77
2023/03/02 12:05:21;;;;;;;6.73;5.53;;;21.10;36.90;;;;;;4990307;28;20562;-76
2023/03/02 12:07:56;;;;;;;9.47;6.13;;;20.90;36.10;;;;;;4989771;28;20590;-76
2023/03/02 12:10:30;;;;;;;6.03;5.43;;;20.60;35.50;;;;;;4971985;28;21130;-76
2023/03/02 12:13:17;;;;;;;6.40;5.80;;;20.50;36.50;;;;;;4987471;28;20630;-76
2023/03/02 12:15:51;;;;;;;7.20;5.83;;;20.30;36.50;;;;;;4988966;28;20601;-75
2023/03/02 12:18:19;;;;;;;6.43;4.80;;;20.20;36.90;;;;;;4991852;28;20594;-75
2023/03/02 12:20:56;;;;;;;6.70;5.70;;;20.20;37.10;;;;;;4989612;28;20595;-77
2023/03/02 12:23:24;;;;;;;9.23;5.37;;;20.10;36.80;;;;;;4990370;28;20613;-76
2023/03/02 12:26:22;;;;;;;6.17;5.50;;;19.90;36.20;;;;;;4990498;28;20675;-76
2023/03/02 12:29:08;;;;;;;6.77;5.17;;;19.70;35.70;;;;;;4990557;28;20591;-76
2023/03/02 12:31:50;;;;;;;7.10;4.90;;;19.60;36.50;;;;;;4982391;28;20685;-76
2023/03/02 12:34:43;;;;;;;5.23;4.37;;;19.50;36.70;;;;;;4991766;28;20986;-77
2023/03/02 12:37:23;;;;;;;8.20;5.57;;;19.40;36.80;;;;;;5002182;28;20624;-76
2023/03/02 12:40:26;;;;;;;5.83;5.17;;;19.30;36.70;;;;;;5007571;28;20578;-77
2023/03/02 12:43:16;;;;;;;6.67;5.90;;;19.20;36.80;;;;;;4973295;28;20634;-76
2023/03/02 12:45:57;;;;;;;5.70;4.73;;;19.10;36.40;;;;;;4998635;28;20590;-77
2023/03/02 12:48:26;;;;;;;6.80;4.80;;;18.90;36.10;;;;;;4985834;28;20646;-76
2023/03/02 12:50:58;;;;;;;7.60;5.50;;;18.70;36.00;;;;;;4984152;28;20661;-77
2023/03/02 12:53:24;;;;;;;6.40;5.70;;;18.30;35.30;;;;;;4991160;28;20612;-76
2023/03/02 12:55:49;;;;;;;7.03;5.50;;;17.90;35.30;;;;;;4991884;28;20566;-76
2023/03/02 12:58:21;;;;;;;6.90;5.10;;;17.40;35.00;;;;;;4993508;28;20235;-75
2023/03/02 13:00:52;;;;;;;7.10;4.97;;;17.00;35.10;;;;;;4990006;28;20175;-75
2023/03/02 13:03:17;;;;;;;6.73;4.90;;;16.50;35.00;;;;;;4973901;28;20703;-76
2023/03/02 13:05:46;;;;;;;6.80;6.00;;;16.10;35.20;;;;;;4990450;28;20594;-75
2023/03/02 13:08:23;;;;;;;7.50;5.23;;;15.80;35.30;;;;;;4990302;28;20927;-76
2023/03/02 13:10:58;;;;;;;5.80;4.60;;;15.50;35.60;;;;;;4989775;28;20637;-75